createdAt,value
2023-06-04T00:00:27.306Z,42.66
2023-06-04T00:01:27.269Z,43.26
2023-06-04T00:02:27.318Z,42.76
2023-06-04T00:03:27.539Z,43.26
2023-06-04T00:04:27.232Z,43.16
2023-06-04T00:05:27.301Z,42.35
2023-06-04T00:06:27.161Z,42.45
2023-06-04T00:07:27.417Z,42.66
2023-06-04T00:08:27.136Z,42.66
2023-06-04T00:09:27.190Z,43.06
2023-06-04T00:10:27.133Z,43.79
2023-06-04T00:11:27.117Z,43.69
2023-06-04T00:12:27.099Z,44.40
2023-06-04T00:13:27.078Z,44.30
2023-06-04T00:14:27.113Z,43.29
2023-06-04T00:15:27.061Z,44.51
2023-06-04T00:16:27.143Z,44.71
2023-06-04T00:17:27.082Z,44.63
2023-06-04T00:18:27.032Z,45.24
2023-06-04T00:19:27.012Z,44.42
2023-06-04T00:20:26.988Z,44.22
2023-06-04T00:21:26.980Z,45.14
2023-06-04T00:22:27.205Z,44.42
2023-06-04T00:23:27.106Z,44.83
2023-06-04T00:24:26.927Z,45.44
2023-06-04T00:25:26.934Z,45.34
2023-06-04T00:26:26.915Z,45.44
2023-06-04T00:27:27.015Z,44.93
2023-06-04T00:28:26.883Z,45.44
2023-06-04T00:29:26.873Z,46.05
2023-06-04T00:30:26.891Z,45.44
2023-06-04T00:31:26.958Z,45.34
2023-06-04T00:32:26.883Z,45.76
2023-06-04T00:33:26.821Z,46.37
2023-06-04T00:34:26.804Z,46.17
2023-06-04T00:35:26.816Z,46.07
2023-06-04T00:36:26.790Z,46.17
2023-06-04T00:37:26.780Z,45.87
2023-06-04T00:38:26.769Z,45.97
2023-06-04T00:39:26.760Z,45.76
2023-06-04T00:40:26.738Z,45.97
2023-06-04T00:41:26.721Z,46.07
2023-06-04T00:42:26.704Z,46.20
2023-06-04T00:43:26.738Z,46.30
2023-06-04T00:44:26.664Z,46.50
2023-06-04T00:45:26.685Z,47.01
2023-06-04T00:46:26.979Z,47.42
2023-06-04T00:47:26.683Z,47.42
2023-06-04T00:48:26.626Z,47.21
2023-06-04T00:49:26.620Z,47.62
2023-06-04T00:50:26.602Z,47.82
2023-06-04T00:51:26.584Z,47.82
2023-06-04T00:52:26.563Z,47.92
2023-06-04T00:53:26.564Z,47.82
2023-06-04T00:54:26.529Z,48.03
2023-06-04T00:55:26.551Z,47.82
2023-06-04T00:56:26.525Z,47.62
2023-06-04T00:57:26.519Z,47.62
2023-06-04T00:58:26.479Z,48.43
2023-06-04T00:59:26.485Z,48.03
2023-06-04T01:00:26.457Z,48.23
2023-06-04T01:01:26.537Z,48.33
2023-06-04T01:02:26.559Z,48.15
2023-06-04T01:03:26.486Z,48.25
2023-06-04T01:04:26.408Z,48.33
2023-06-04T01:05:26.392Z,48.43
2023-06-04T01:06:26.375Z,48.84
2023-06-04T01:07:26.571Z,49.48
2023-06-04T01:08:26.366Z,49.58
2023-06-04T01:09:26.356Z,49.58
2023-06-04T01:10:26.322Z,49.17
2023-06-04T01:11:26.310Z,49.37
2023-06-04T01:12:26.316Z,49.68
2023-06-04T01:13:26.313Z,49.58
2023-06-04T01:14:26.260Z,49.48
2023-06-04T01:15:26.261Z,49.78
2023-06-04T01:16:26.288Z,49.98
2023-06-04T01:17:26.299Z,49.58
2023-06-04T01:18:26.224Z,50.19
2023-06-04T01:19:26.216Z,49.58
2023-06-04T01:20:26.194Z,49.68
2023-06-04T01:21:26.196Z,49.68
2023-06-04T01:22:26.176Z,49.68
2023-06-04T01:23:26.193Z,49.78
2023-06-04T01:24:26.138Z,49.88
2023-06-04T01:25:27.085Z,49.78
2023-06-04T01:26:26.126Z,49.98
2023-06-04T01:27:26.130Z,50.09
2023-06-04T01:28:26.094Z,50.09
2023-06-04T01:29:26.088Z,50.19
2023-06-04T01:30:26.073Z,50.39
2023-06-04T01:31:26.121Z,50.39
2023-06-04T01:32:26.104Z,50.52
2023-06-04T01:33:26.038Z,50.52
2023-06-04T01:34:25.997Z,50.62
2023-06-04T01:35:28.255Z,50.92
2023-06-04T01:36:25.977Z,51.03
2023-06-04T01:37:25.985Z,51.53
2023-06-04T01:38:25.972Z,51.53
2023-06-04T01:39:25.954Z,52.25
2023-06-04T01:40:25.952Z,52.35
2023-06-04T01:41:25.964Z,52.35
2023-06-04T01:42:25.930Z,52.66
2023-06-04T01:43:25.906Z,52.35
2023-06-04T01:44:25.882Z,52.48
2023-06-04T01:45:25.883Z,52.68
2023-06-04T01:46:25.908Z,52.98
2023-06-04T01:47:25.907Z,52.78
2023-06-04T01:48:25.876Z,52.88
2023-06-04T01:49:25.825Z,52.98
2023-06-04T01:50:25.810Z,53.29
2023-06-04T01:51:25.802Z,53.39
2023-06-04T01:52:25.802Z,53.19
2023-06-04T01:53:25.776Z,53.19
2023-06-04T01:54:25.779Z,52.37
2023-06-04T01:55:25.753Z,52.98
2023-06-04T01:56:25.725Z,53.19
2023-06-04T01:57:25.729Z,53.50
2023-06-04T01:58:25.711Z,53.19
2023-06-04T01:59:25.709Z,53.70
2023-06-04T02:00:25.686Z,53.90
2023-06-04T02:01:25.689Z,54.03
2023-06-04T02:02:25.661Z,53.92
2023-06-04T02:03:25.816Z,54.03
2023-06-04T02:04:25.628Z,54.11
2023-06-04T02:05:25.632Z,54.03
2023-06-04T02:06:25.595Z,54.13
2023-06-04T02:07:25.601Z,54.33
2023-06-04T02:08:25.581Z,54.24
2023-06-04T02:09:25.565Z,54.44
2023-06-04T02:10:25.556Z,54.44
2023-06-04T02:11:25.534Z,54.33
2023-06-04T02:12:25.709Z,54.33
2023-06-04T02:13:25.723Z,54.24
2023-06-04T02:14:25.491Z,54.33
2023-06-04T02:15:25.484Z,54.44
2023-06-04T02:16:25.486Z,54.44
2023-06-04T02:17:25.484Z,54.54
2023-06-04T02:18:25.465Z,54.64
2023-06-04T02:19:25.439Z,54.85
2023-06-04T02:20:25.414Z,55.15
2023-06-04T02:21:25.412Z,55.28
2023-06-04T02:22:25.385Z,55.69
2023-06-04T02:23:25.404Z,55.38
2023-06-04T02:24:25.356Z,55.69
2023-06-04T02:25:25.827Z,55.48
2023-06-04T02:26:25.340Z,55.48
2023-06-04T02:27:25.356Z,55.48
2023-06-04T02:28:25.312Z,55.28
2023-06-04T02:29:25.303Z,55.38
2023-06-04T02:30:25.281Z,55.28
2023-06-04T02:31:25.352Z,54.97
2023-06-04T02:32:26.008Z,55.28
2023-06-04T02:33:25.270Z,55.28
2023-06-04T02:34:25.232Z,55.48
2023-06-04T02:35:25.300Z,55.89
2023-06-04T02:36:25.216Z,56.10
2023-06-04T02:37:25.197Z,55.99
2023-06-04T02:38:25.191Z,56.30
2023-06-04T02:39:25.180Z,56.60
2023-06-04T02:40:25.156Z,56.60
2023-06-04T02:41:25.142Z,57.04
2023-06-04T02:42:25.122Z,57.14
2023-06-04T02:43:25.145Z,57.34
2023-06-04T02:44:26.943Z,57.65
2023-06-04T02:45:25.109Z,57.14
2023-06-04T02:46:25.124Z,57.24
2023-06-04T02:47:25.065Z,57.34
2023-06-04T02:48:25.050Z,57.34
2023-06-04T02:49:25.065Z,57.55
2023-06-04T02:50:25.025Z,57.14
2023-06-04T02:51:25.058Z,57.45
2023-06-04T02:52:24.987Z,57.34
2023-06-04T02:53:24.994Z,57.45
2023-06-04T02:54:24.992Z,57.45
2023-06-04T02:55:24.966Z,57.55
2023-06-04T02:56:24.937Z,57.65
2023-06-04T02:57:24.943Z,57.96
2023-06-04T02:58:24.916Z,58.16
2023-06-04T02:59:24.927Z,58.26
2023-06-04T03:00:24.896Z,58.26
2023-06-04T03:01:24.902Z,58.47
2023-06-04T03:02:24.874Z,58.47
2023-06-04T03:03:24.972Z,58.57
2023-06-04T03:04:24.836Z,58.57
2023-06-04T03:05:24.836Z,58.67
2023-06-04T03:06:24.818Z,58.57
2023-06-04T03:07:24.832Z,58.57
2023-06-04T03:08:24.867Z,58.57
2023-06-04T03:09:24.797Z,58.57
2023-06-04T03:10:24.761Z,58.67
2023-06-04T03:11:24.753Z,58.78
2023-06-04T03:12:24.734Z,58.98
2023-06-04T03:13:24.768Z,58.67
2023-06-04T03:14:24.754Z,58.87
2023-06-04T03:15:24.708Z,58.98
2023-06-04T03:16:24.822Z,59.31
2023-06-04T03:17:24.709Z,59.21
2023-06-04T03:18:24.689Z,59.62
2023-06-04T03:19:24.674Z,59.72
2023-06-04T03:20:24.637Z,59.41
2023-06-04T03:21:24.657Z,59.62
2023-06-04T03:22:24.600Z,59.72
2023-06-04T03:23:24.625Z,59.92
2023-06-04T03:24:24.583Z,60.03
2023-06-04T03:25:24.577Z,60.03
2023-06-04T03:26:24.560Z,60.03
2023-06-04T03:27:24.614Z,60.03
2023-06-04T03:28:24.566Z,60.33
2023-06-04T03:29:24.520Z,60.53
2023-06-04T03:30:24.519Z,60.64
2023-06-04T03:31:24.523Z,60.64
2023-06-04T03:32:24.516Z,60.64
2023-06-04T03:33:24.472Z,60.74
2023-06-04T03:34:24.454Z,60.85
2023-06-04T03:35:24.438Z,60.85
2023-06-04T03:36:24.429Z,60.85
2023-06-04T03:37:24.449Z,60.53
2023-06-04T03:38:24.407Z,60.33
2023-06-04T03:39:24.431Z,60.21
2023-06-04T03:40:24.427Z,60.30
2023-06-04T03:41:24.360Z,59.89
2023-06-04T03:42:24.344Z,59.69
2023-06-04T03:43:24.329Z,59.69
2023-06-04T03:44:24.340Z,59.49
2023-06-04T03:45:24.301Z,59.18
2023-06-04T03:46:24.306Z,59.16
2023-06-04T03:47:24.317Z,59.26
2023-06-04T03:48:24.256Z,58.95
2023-06-04T03:49:24.250Z,58.85
2023-06-04T03:50:25.018Z,58.75
2023-06-04T03:51:24.227Z,58.75
2023-06-04T03:52:25.072Z,58.54
2023-06-04T03:53:25.086Z,58.64
2023-06-04T03:54:24.231Z,58.11
2023-06-04T03:55:24.180Z,58.11
2023-06-04T03:56:24.168Z,58.21
2023-06-04T03:57:24.141Z,58.21
2023-06-04T03:58:25.195Z,58.31
2023-06-04T03:59:24.140Z,58.11
2023-06-04T04:00:25.005Z,58.41
2023-06-04T04:01:24.096Z,59.03
2023-06-04T04:02:24.203Z,59.43
2023-06-04T04:03:24.145Z,59.53
2023-06-04T04:04:25.202Z,59.53
2023-06-04T04:05:24.044Z,59.33
2023-06-04T04:06:24.054Z,59.64
2023-06-04T04:07:24.699Z,59.64
2023-06-04T04:08:25.245Z,59.12
2023-06-04T04:09:23.992Z,59.41
2023-06-04T04:10:25.066Z,59.41
2023-06-04T04:11:24.147Z,59.41
2023-06-04T04:12:24.023Z,59.91
2023-06-04T04:13:24.785Z,59.91
2023-06-04T04:14:25.189Z,59.61
2023-06-04T04:15:24.971Z,59.30
2023-06-04T04:16:23.955Z,59.81
2023-06-04T04:17:25.608Z,60.02
2023-06-04T04:18:23.898Z,59.30
2023-06-04T04:19:23.943Z,59.81
2023-06-04T04:20:23.876Z,59.61
2023-06-04T04:21:23.900Z,59.91
2023-06-04T04:22:23.943Z,59.00
2023-06-04T04:23:24.036Z,59.00
2023-06-04T04:24:24.021Z,59.10
2023-06-04T04:25:23.806Z,58.69
2023-06-04T04:26:23.808Z,57.57
2023-06-04T04:27:23.794Z,57.34
2023-06-04T04:28:23.927Z,56.93
2023-06-04T04:29:23.818Z,57.34
2023-06-04T04:30:23.854Z,56.83
2023-06-04T04:31:23.768Z,57.85
2023-06-04T04:32:23.791Z,57.24
2023-06-04T04:33:23.696Z,57.75
2023-06-04T04:34:23.956Z,57.95
2023-06-04T04:35:23.971Z,56.22
2023-06-04T04:36:25.094Z,56.40
2023-06-04T04:37:24.006Z,56.40
2023-06-04T04:38:23.632Z,55.89
2023-06-04T04:39:24.040Z,57.11
2023-06-04T04:40:23.618Z,57.62
2023-06-04T04:41:23.748Z,57.72
2023-06-04T04:42:24.128Z,58.13
2023-06-04T04:43:24.138Z,58.03
2023-06-04T04:44:24.160Z,58.10
2023-06-04T04:45:24.177Z,58.10
2023-06-04T04:46:23.897Z,57.90
2023-06-04T04:47:23.596Z,57.39
2023-06-04T04:48:23.533Z,57.49
2023-06-04T04:49:23.496Z,57.59
2023-06-04T04:50:23.564Z,57.56
2023-06-04T04:51:24.297Z,55.02
2023-06-04T04:53:40.066Z,56.85
2023-06-04T04:54:40.039Z,56.45
2023-06-04T04:55:41.743Z,56.12
2023-06-04T04:56:40.041Z,56.12
2023-06-04T04:57:40.131Z,55.71
2023-06-04T04:58:40.016Z,55.10
2023-06-04T04:59:40.005Z,53.78
2023-06-04T05:00:39.964Z,53.85
2023-06-04T05:01:39.984Z,54.77
2023-06-04T05:02:40.006Z,54.87
2023-06-04T05:03:40.069Z,55.07
2023-06-04T05:04:39.950Z,55.07
2023-06-04T05:05:39.906Z,55.25
2023-06-04T05:06:39.902Z,52.51
2023-06-04T05:07:47.036Z,53.02
2023-06-04T05:08:39.874Z,52.71
2023-06-04T05:09:39.856Z,52.61
2023-06-04T05:10:39.838Z,53.09
2023-06-04T05:11:39.822Z,51.46
2023-06-04T05:12:39.809Z,52.38
2023-06-04T05:13:39.806Z,51.67
2023-06-04T05:14:39.816Z,51.77
2023-06-04T05:15:39.800Z,51.67
2023-06-04T05:16:41.989Z,51.65
2023-06-04T05:17:39.800Z,53.27
2023-06-04T05:18:39.840Z,52.66
2023-06-04T05:19:39.873Z,52.66
2023-06-04T05:20:39.804Z,53.88
2023-06-04T05:21:39.801Z,53.58
2023-06-04T05:22:39.788Z,51.85
2023-06-04T05:23:39.696Z,51.44
2023-06-04T05:24:39.656Z,52.56
2023-06-04T05:25:39.652Z,51.75
2023-06-04T05:26:39.632Z,53.14
2023-06-04T05:27:39.632Z,50.81
2023-06-04T05:28:39.641Z,50.00
2023-06-04T05:29:39.605Z,50.60
2023-06-04T05:30:39.583Z,50.91
2023-06-04T05:31:39.608Z,51.01
2023-06-04T05:32:39.566Z,50.48
2023-06-04T05:33:39.551Z,50.99
2023-06-04T05:34:39.536Z,51.19
2023-06-04T05:35:39.520Z,51.60
2023-06-04T05:36:39.533Z,51.39
2023-06-04T05:37:39.503Z,50.68
2023-06-04T05:38:39.507Z,49.77
2023-06-04T05:39:39.469Z,50.35
2023-06-04T05:40:39.462Z,51.17
2023-06-04T05:41:39.451Z,51.78
2023-06-04T05:42:39.451Z,51.98
2023-06-04T05:43:39.429Z,51.75
2023-06-04T05:44:39.405Z,51.65
2023-06-04T05:45:39.429Z,52.06
2023-06-04T05:46:39.380Z,51.45
2023-06-04T05:47:39.390Z,51.65
2023-06-04T05:48:39.349Z,50.34
2023-06-04T05:49:39.347Z,50.13
2023-06-04T05:50:39.313Z,50.54
2023-06-04T05:51:39.327Z,50.74
2023-06-04T05:52:39.298Z,51.45
2023-06-04T05:53:39.570Z,51.32
2023-06-04T05:54:39.269Z,51.93
2023-06-04T05:55:40.722Z,51.12
2023-06-04T05:56:39.246Z,51.42
2023-06-04T05:57:39.249Z,50.92
2023-06-04T05:58:39.226Z,50.11
2023-06-04T05:59:39.212Z,50.31
2023-06-04T06:00:39.752Z,50.71
2023-06-04T06:01:39.190Z,50.92
2023-06-04T06:02:39.221Z,50.99
2023-06-04T06:03:39.243Z,49.19
2023-06-04T06:04:39.270Z,49.60
2023-06-04T06:05:39.153Z,50.21
2023-06-04T06:06:39.108Z,49.30
2023-06-04T06:07:39.145Z,49.17
2023-06-04T06:08:39.082Z,48.67
2023-06-04T06:09:39.079Z,48.36
2023-06-04T06:10:39.960Z,48.87
2023-06-04T06:11:39.055Z,48.87
2023-06-04T06:12:39.031Z,47.96
2023-06-04T06:13:39.030Z,49.25
2023-06-04T06:14:39.005Z,47.53
2023-06-04T06:15:39.042Z,48.65
2023-06-04T06:16:39.006Z,49.15
2023-06-04T06:17:39.030Z,48.74
2023-06-04T06:18:38.965Z,47.53
2023-06-04T06:19:38.963Z,49.22
2023-06-04T06:20:38.976Z,48.11
2023-06-04T06:21:38.949Z,48.42
2023-06-04T06:22:38.924Z,47.81
2023-06-04T06:23:38.996Z,45.69
2023-06-04T06:24:38.892Z,45.18
2023-06-04T06:25:38.872Z,45.97
2023-06-04T06:26:38.875Z,45.87
2023-06-04T06:27:38.874Z,46.07
2023-06-04T06:28:38.836Z,46.17
2023-06-04T06:29:38.838Z,46.37
2023-06-04T06:30:38.834Z,46.28
2023-06-04T06:31:38.892Z,44.35
2023-06-04T06:32:38.845Z,45.16
2023-06-04T06:33:38.796Z,43.32
2023-06-04T06:34:38.757Z,43.73
2023-06-04T06:35:38.797Z,41.81
2023-06-04T06:36:38.721Z,42.01
2023-06-04T06:37:38.721Z,42.92
2023-06-04T06:38:38.709Z,42.72
2023-06-04T06:39:38.718Z,41.79
2023-06-04T06:40:38.725Z,40.90
2023-06-04T06:41:38.744Z,39.89
2023-06-04T06:42:38.718Z,41.30
2023-06-04T06:43:38.643Z,41.20
2023-06-04T06:44:38.651Z,40.59
2023-06-04T06:45:38.631Z,41.79
2023-06-04T06:46:38.634Z,41.49
2023-06-04T06:47:38.615Z,41.39
2023-06-04T06:48:38.594Z,41.28
2023-06-04T06:49:38.568Z,40.78
2023-06-04T06:50:38.571Z,41.28
2023-06-04T06:51:38.545Z,41.77
2023-06-04T06:52:38.529Z,40.66
2023-06-04T06:53:38.517Z,41.36
2023-06-04T06:54:38.536Z,41.77
2023-06-04T06:55:38.518Z,42.27
2023-06-04T06:56:38.515Z,41.97
2023-06-04T06:57:38.497Z,42.27
2023-06-04T06:58:38.473Z,42.25
2023-06-04T06:59:38.466Z,40.54
2023-06-04T07:00:38.532Z,40.44
2023-06-04T07:01:38.488Z,40.34
2023-06-04T07:02:38.490Z,40.74
2023-06-04T07:03:38.448Z,40.54
2023-06-04T07:04:38.388Z,39.41
2023-06-04T07:05:38.365Z,40.22
2023-06-04T07:06:38.425Z,41.13
2023-06-04T07:07:38.358Z,39.31
2023-06-04T07:08:38.347Z,40.01
2023-06-04T07:09:38.349Z,40.01
2023-06-04T07:10:38.322Z,40.22
2023-06-04T07:11:38.630Z,39.61
2023-06-04T07:12:40.366Z,40.01
2023-06-04T07:13:38.256Z,40.10
2023-06-04T07:14:39.020Z,40.20
2023-06-04T07:15:38.343Z,39.70
2023-06-04T07:16:39.392Z,39.70
2023-06-04T07:17:38.342Z,39.79
2023-06-04T07:18:40.197Z,39.59
2023-06-04T07:19:39.181Z,39.39
2023-06-04T07:20:39.087Z,39.17
2023-06-04T07:21:38.386Z,38.37
2023-06-04T07:22:38.375Z,37.46
2023-06-04T07:23:38.737Z,36.66
2023-06-04T07:24:38.151Z,36.86
2023-06-04T07:25:38.129Z,35.85
2023-06-04T07:26:39.029Z,37.16
2023-06-04T07:27:38.118Z,37.36
2023-06-04T07:28:38.108Z,37.16
2023-06-04T07:29:38.262Z,37.06
2023-06-04T07:30:40.034Z,37.46
2023-06-04T07:31:38.137Z,37.66
2023-06-04T07:32:38.056Z,37.36
2023-06-04T07:33:38.113Z,37.04
2023-06-04T07:34:38.073Z,36.84
2023-06-04T07:35:38.001Z,36.64
2023-06-04T07:36:38.167Z,34.74
2023-06-04T07:37:38.174Z,35.25
2023-06-04T07:38:37.964Z,35.35
2023-06-04T07:39:38.000Z,36.15
2023-06-04T07:40:38.310Z,35.75
2023-06-04T07:41:37.959Z,35.55
2023-06-04T07:42:37.968Z,35.95
2023-06-04T07:43:37.904Z,34.72
2023-06-04T07:44:37.921Z,35.13
2023-06-04T07:45:37.935Z,34.42
2023-06-04T07:46:37.998Z,35.13
2023-06-04T07:47:38.010Z,34.04
2023-06-04T07:48:38.037Z,34.34
2023-06-04T07:49:44.634Z,34.84
2023-06-04T07:50:41.140Z,35.05
2023-06-04T07:51:37.859Z,35.43
2023-06-04T07:52:38.039Z,35.53
2023-06-04T07:53:37.993Z,34.52
2023-06-04T07:54:37.788Z,34.81
2023-06-04T07:55:38.154Z,33.70
2023-06-04T07:56:37.774Z,33.80
2023-06-04T07:57:38.191Z,34.41
2023-06-04T07:58:37.744Z,34.51
2023-06-04T07:59:37.695Z,35.01
2023-06-04T08:00:37.656Z,33.50
2023-06-04T08:01:37.655Z,34.00
2023-06-04T08:02:37.786Z,34.20
2023-06-04T08:03:38.159Z,34.20
2023-06-04T08:04:37.674Z,33.70
2023-06-04T08:05:37.601Z,34.11
2023-06-04T08:06:37.584Z,33.91
2023-06-04T08:07:37.608Z,33.69
2023-06-04T08:08:37.557Z,33.69
2023-06-04T08:09:37.543Z,34.27
2023-06-04T08:10:37.552Z,33.17
2023-06-04T08:11:37.526Z,33.67
2023-06-04T08:12:37.500Z,33.87
2023-06-04T08:13:37.474Z,33.87
2023-06-04T08:14:37.477Z,32.87
2023-06-04T08:15:38.018Z,33.97
2023-06-04T08:16:37.488Z,34.07
2023-06-04T08:17:37.475Z,33.65
2023-06-04T08:18:37.432Z,33.36
2023-06-04T08:19:37.393Z,33.67
2023-06-04T08:20:37.404Z,34.27
2023-06-04T08:21:37.380Z,34.27
2023-06-04T08:22:37.376Z,34.88
2023-06-04T08:23:37.350Z,33.86
2023-06-04T08:24:37.355Z,33.86
2023-06-04T08:25:37.326Z,34.76
2023-06-04T08:26:37.324Z,34.66
2023-06-04T08:27:37.294Z,34.96
2023-06-04T08:28:37.296Z,34.74
2023-06-04T08:29:37.262Z,34.54
2023-06-04T08:30:37.324Z,33.94
2023-06-04T08:31:37.337Z,33.05
2023-06-04T08:32:37.307Z,33.36
2023-06-04T08:33:37.275Z,33.45
2023-06-04T08:34:37.290Z,33.15
2023-06-04T08:35:37.476Z,33.15
2023-06-04T08:36:37.258Z,33.15
2023-06-04T08:37:37.193Z,33.15
2023-06-04T08:38:37.204Z,33.05
2023-06-04T08:39:37.162Z,33.05
2023-06-04T08:40:37.199Z,33.36
2023-06-04T08:41:37.201Z,33.25
2023-06-04T08:42:37.140Z,33.05
2023-06-04T08:43:37.163Z,33.86
2023-06-04T08:44:37.146Z,33.86
2023-06-04T08:45:37.249Z,33.44
2023-06-04T08:46:37.206Z,33.54
2023-06-04T08:47:37.220Z,33.23
2023-06-04T08:48:37.218Z,33.54
2023-06-04T08:49:37.013Z,32.73
2023-06-04T08:50:37.098Z,33.84
2023-06-04T08:51:36.981Z,33.12
2023-06-04T08:52:36.977Z,33.83
2023-06-04T08:53:37.019Z,33.52
2023-06-04T08:54:36.955Z,32.92
2023-06-04T08:55:36.940Z,33.32
2023-06-04T08:56:37.012Z,33.62
2023-06-04T08:57:36.912Z,33.62
2023-06-04T08:58:36.914Z,33.31
2023-06-04T08:59:36.889Z,33.00
2023-06-04T09:00:36.890Z,32.10
2023-06-04T09:01:36.889Z,32.90
2023-06-04T09:02:36.878Z,32.50
2023-06-04T09:03:36.901Z,32.32
2023-06-04T09:04:36.836Z,32.02
2023-06-04T09:05:36.810Z,32.82
2023-06-04T09:06:36.799Z,33.52
2023-06-04T09:07:36.795Z,33.61
2023-06-04T09:08:36.787Z,33.20
2023-06-04T09:09:36.868Z,32.00
2023-06-04T09:10:36.782Z,31.90
2023-06-04T09:11:36.740Z,31.70
2023-06-04T09:12:36.728Z,31.80
2023-06-04T09:13:36.722Z,31.70
2023-06-04T09:14:36.705Z,31.70
2023-06-04T09:15:36.716Z,31.40
2023-06-04T09:16:36.766Z,31.50
2023-06-04T09:17:36.727Z,31.40
2023-06-04T09:18:36.697Z,30.90
2023-06-04T09:19:36.657Z,31.20
2023-06-04T09:20:36.794Z,31.21
2023-06-04T09:21:36.608Z,31.41
2023-06-04T09:22:36.619Z,31.62
2023-06-04T09:23:36.642Z,32.21
2023-06-04T09:24:36.573Z,32.32
2023-06-04T09:25:36.565Z,32.02
2023-06-04T09:26:36.552Z,32.52
2023-06-04T09:27:36.575Z,32.20
2023-06-04T09:28:36.667Z,31.90
2023-06-04T09:29:36.523Z,31.50
2023-06-04T09:30:36.514Z,31.60
2023-06-04T09:31:36.533Z,32.00
2023-06-04T09:32:36.512Z,32.00
2023-06-04T09:33:36.501Z,32.18
2023-06-04T09:34:36.494Z,32.49
2023-06-04T09:35:36.458Z,32.17
2023-06-04T09:36:36.435Z,32.37
2023-06-04T09:37:36.565Z,32.56
2023-06-04T09:38:36.403Z,32.26
2023-06-04T09:39:36.599Z,32.35
2023-06-04T09:40:36.382Z,32.35
2023-06-04T09:41:36.549Z,32.34
2023-06-04T09:42:36.356Z,31.65
2023-06-04T09:43:36.327Z,31.96
2023-06-04T09:44:36.335Z,31.85
2023-06-04T09:45:36.390Z,31.46
2023-06-04T09:46:36.363Z,31.76
2023-06-04T09:47:36.399Z,31.76
2023-06-04T09:48:36.270Z,32.07
2023-06-04T09:49:36.249Z,32.06
2023-06-04T09:50:36.252Z,31.85
2023-06-04T09:51:37.205Z,31.56
2023-06-04T09:52:36.227Z,31.46
2023-06-04T09:53:36.190Z,31.54
2023-06-04T09:54:36.255Z,31.35
2023-06-04T09:55:36.179Z,31.46
2023-06-04T09:56:36.174Z,31.05
2023-06-04T09:57:36.149Z,31.26
2023-06-04T09:58:36.130Z,31.35
2023-06-04T09:59:36.119Z,32.06
2023-06-04T10:00:36.132Z,31.76
2023-06-04T10:01:36.141Z,31.74
2023-06-04T10:02:36.161Z,31.94
2023-06-04T10:03:36.339Z,31.73
2023-06-04T10:04:36.092Z,31.62
2023-06-04T10:05:36.057Z,31.43
2023-06-04T10:06:36.051Z,31.02
2023-06-04T10:07:36.019Z,30.62
2023-06-04T10:08:36.021Z,30.73
2023-06-04T10:09:36.005Z,30.93
2023-06-04T10:10:36.028Z,31.14
2023-06-04T10:11:35.974Z,31.64
2023-06-04T10:12:35.959Z,31.52
2023-06-04T10:13:35.960Z,31.43
2023-06-04T10:14:35.980Z,31.82
2023-06-04T10:15:35.919Z,31.93
2023-06-04T10:16:35.949Z,31.71
2023-06-04T10:17:36.062Z,31.61
2023-06-04T10:18:35.881Z,31.01
2023-06-04T10:19:35.963Z,31.23
2023-06-04T10:20:35.870Z,31.43
2023-06-04T10:21:36.097Z,31.51
2023-06-04T10:22:35.855Z,31.41
2023-06-04T10:23:35.933Z,30.71
2023-06-04T10:24:35.808Z,30.91
2023-06-04T10:25:35.782Z,30.81
2023-06-04T10:26:35.810Z,30.81
2023-06-04T10:27:35.769Z,31.11
2023-06-04T10:28:35.761Z,30.81
2023-06-04T10:29:35.737Z,31.31
2023-06-04T10:30:35.746Z,30.90
2023-06-04T10:31:35.743Z,30.40
2023-06-04T10:32:35.846Z,30.91
2023-06-04T10:33:35.680Z,30.61
2023-06-04T10:34:35.683Z,30.29
2023-06-04T10:35:35.678Z,30.21
2023-06-04T10:36:36.645Z,30.43
2023-06-04T10:37:35.683Z,31.12
2023-06-04T10:38:35.942Z,31.62
2023-06-04T10:39:35.607Z,32.03
2023-06-04T10:40:35.649Z,31.41
2023-06-04T10:41:35.612Z,31.31
2023-06-04T10:42:35.590Z,31.10
2023-06-04T10:43:35.565Z,30.60
2023-06-04T10:44:35.555Z,31.20
2023-06-04T10:45:35.562Z,30.90
2023-06-04T10:46:35.662Z,30.60
2023-06-04T10:47:35.575Z,31.18
2023-06-04T10:48:35.510Z,30.48
2023-06-04T10:49:35.478Z,30.58
2023-06-04T10:50:35.492Z,30.19
2023-06-04T10:51:35.550Z,30.10
2023-06-04T10:52:35.492Z,30.29
2023-06-04T10:53:35.441Z,30.10
2023-06-04T10:54:35.431Z,29.99
2023-06-04T10:55:35.429Z,30.10
2023-06-04T10:56:35.402Z,30.40
2023-06-04T10:57:35.384Z,30.40
2023-06-04T10:58:35.370Z,30.68
2023-06-04T10:59:35.369Z,30.57
2023-06-04T11:00:35.352Z,30.27
2023-06-04T11:01:35.375Z,29.86
2023-06-04T11:02:35.363Z,30.27
2023-06-04T11:03:35.360Z,30.46
2023-06-04T11:04:35.304Z,29.06
2023-06-04T11:05:35.297Z,29.57
2023-06-04T11:06:35.284Z,29.67
2023-06-04T11:07:42.681Z,29.68
2023-06-04T11:08:35.265Z,29.58
2023-06-04T11:09:38.001Z,29.48
2023-06-04T11:10:36.881Z,29.58
2023-06-04T11:11:35.225Z,29.48
2023-06-04T11:12:35.269Z,29.77
2023-06-04T11:13:35.187Z,29.08
2023-06-04T11:14:35.303Z,29.38
2023-06-04T11:15:35.231Z,29.28
2023-06-04T11:16:35.157Z,29.28
2023-06-04T11:17:35.204Z,29.68
2023-06-04T11:18:35.134Z,29.08
2023-06-04T11:19:35.145Z,29.28
2023-06-04T11:20:35.105Z,28.78
2023-06-04T11:21:35.073Z,28.80
2023-06-04T11:22:35.070Z,29.69
2023-06-04T11:23:35.128Z,29.19
2023-06-04T11:24:35.055Z,30.19
2023-06-04T11:25:35.062Z,29.88
2023-06-04T11:26:36.013Z,29.08
2023-06-04T11:27:36.668Z,29.08
2023-06-04T11:28:34.997Z,29.58
2023-06-04T11:29:35.022Z,29.38
2023-06-04T11:30:35.198Z,29.08
2023-06-04T11:31:35.012Z,28.98
2023-06-04T11:32:35.142Z,28.88
2023-06-04T11:33:34.959Z,28.58
2023-06-04T11:34:34.928Z,28.48
2023-06-04T11:35:35.582Z,28.78
2023-06-04T11:36:34.884Z,28.48
2023-06-04T11:37:34.889Z,28.68
2023-06-04T11:38:34.881Z,28.98
2023-06-04T11:39:34.866Z,28.97
2023-06-04T11:40:34.844Z,28.88
2023-06-04T11:41:34.881Z,28.50
2023-06-04T11:42:34.806Z,29.11
2023-06-04T11:43:34.793Z,29.51
2023-06-04T11:44:34.777Z,29.80
2023-06-04T11:45:34.777Z,29.18
2023-06-04T11:46:34.812Z,29.98
2023-06-04T11:47:34.795Z,29.97
2023-06-04T11:48:34.783Z,30.46
2023-06-04T11:49:34.766Z,30.35
2023-06-04T11:50:34.936Z,30.33
2023-06-04T11:51:34.723Z,29.64
2023-06-04T11:52:34.671Z,28.84
2023-06-04T11:53:34.671Z,28.64
2023-06-04T11:54:34.703Z,27.64
2023-06-04T11:55:34.657Z,27.04
2023-06-04T11:56:34.618Z,27.95
2023-06-04T11:57:34.630Z,28.05
2023-06-04T11:58:34.596Z,27.95
2023-06-04T11:59:34.590Z,27.66
2023-06-04T12:00:34.841Z,28.05
2023-06-04T12:01:34.554Z,27.86
2023-06-04T12:02:34.631Z,27.95
2023-06-04T12:03:34.590Z,28.05
2023-06-04T12:04:34.517Z,27.57
2023-06-04T12:05:34.570Z,27.77
2023-06-04T12:06:34.492Z,27.87
2023-06-04T12:07:34.584Z,27.77
2023-06-04T12:08:34.470Z,27.67
2023-06-04T12:09:34.488Z,27.57
2023-06-04T12:10:34.458Z,27.97
2023-06-04T12:11:34.446Z,27.47
2023-06-04T12:12:34.423Z,27.67
2023-06-04T12:13:34.466Z,27.47
2023-06-04T12:14:34.454Z,27.67
2023-06-04T12:15:34.430Z,27.47
2023-06-04T12:16:34.390Z,27.47
2023-06-04T12:17:34.488Z,27.97
2023-06-04T12:18:34.374Z,27.97
2023-06-04T12:19:34.337Z,27.17
2023-06-04T12:20:34.368Z,27.68
2023-06-04T12:21:34.330Z,27.68
2023-06-04T12:22:34.294Z,27.68
2023-06-04T12:23:34.321Z,26.78
2023-06-04T12:24:34.320Z,26.98
2023-06-04T12:25:34.292Z,27.68
2023-06-04T12:26:34.255Z,28.28
2023-06-04T12:27:34.225Z,28.48
2023-06-04T12:28:34.249Z,27.68
2023-06-04T12:29:34.262Z,27.57
2023-06-04T12:30:34.491Z,27.77
2023-06-04T12:31:34.293Z,27.37
2023-06-04T12:32:34.220Z,27.95
2023-06-04T12:33:34.263Z,28.05
2023-06-04T12:34:34.147Z,27.64
2023-06-04T12:35:34.180Z,27.64
2023-06-04T12:36:34.124Z,26.94
2023-06-04T12:37:34.210Z,27.34
2023-06-04T12:38:34.088Z,27.04
2023-06-04T12:39:34.096Z,26.94
2023-06-04T12:40:34.111Z,27.24
2023-06-04T12:41:34.065Z,26.54
2023-06-04T12:42:34.258Z,26.93
2023-06-04T12:43:34.031Z,26.15
2023-06-04T12:44:35.746Z,26.75
2023-06-04T12:45:34.040Z,25.85
2023-06-04T12:46:34.099Z,26.15
2023-06-04T12:47:34.031Z,26.15
2023-06-04T12:48:33.979Z,26.15
2023-06-04T12:49:33.944Z,26.04
2023-06-04T12:50:33.924Z,26.45
2023-06-04T12:51:33.960Z,26.54
2023-06-04T12:52:33.900Z,26.54
2023-06-04T12:53:33.906Z,26.26